sensor_id;sensor_type;location;lat;lon;timestamp;P1;durP1;ratioP1;P2;durP2;ratioP2
37288;SDS011;23174;49.462;11.000;2023-02-15T00:01:46;10.25;;;9.38;;
37288;SDS011;23174;49.462;11.000;2023-02-15T00:03:48;10.70;;;9.75;;
37288;SDS011;23174;49.462;11.000;2023-02-15T00:05:49;9.65;;;8.75;;
37288;SDS011;23174;49.462;11.000;2023-02-15T00:07:49;10.02;;;9.10;;
37288;SDS011;23174;49.462;11.000;2023-02-15T00:09:50;10.52;;;9.65;;
37288;SDS011;23174;49.462;11.000;2023-02-15T00:11:50;9.82;;;9.02;;
37288;SDS011;23174;49.462;11.000;2023-02-15T00:13:51;10.15;;;9.25;;
37288;SDS011;23174;49.462;11.000;2023-02-15T00:15:52;10.27;;;9.38;;
37288;SDS011;23174;49.462;11.000;2023-02-15T00:17:52;9.77;;;8.98;;
37288;SDS011;23174;49.462;11.000;2023-02-15T00:19:53;10.27;;;9.38;;
37288;SDS011;23174;49.462;11.000;2023-02-15T00:21:53;10.23;;;9.40;;
37288;SDS011;23174;49.462;11.000;2023-02-15T00:23:54;9.20;;;8.50;;
37288;SDS011;23174;49.462;11.000;2023-02-15T00:26:05;9.48;;;8.68;;
37288;SDS011;23174;49.462;11.000;2023-02-15T00:28:09;9.82;;;9.02;;
37288;SDS011;23174;49.462;11.000;2023-02-15T00:30:10;9.45;;;8.65;;
37288;SDS011;23174;49.462;11.000;2023-02-15T00:32:11;9.93;;;9.13;;
37288;SDS011;23174;49.462;11.000;2023-02-15T00:36:14;10.40;;;9.50;;
37288;SDS011;23174;49.462;11.000;2023-02-15T00:38:14;9.63;;;8.82;;
37288;SDS011;23174;49.462;11.000;2023-02-15T00:40:15;9.35;;;8.55;;
37288;SDS011;23174;49.462;11.000;2023-02-15T00:42:15;9.43;;;8.70;;
37288;SDS011;23174;49.462;11.000;2023-02-15T00:44:16;9.82;;;9.00;;
37288;SDS011;23174;49.462;11.000;2023-02-15T00:46:17;9.65;;;8.77;;
37288;SDS011;23174;49.462;11.000;2023-02-15T00:48:17;9.43;;;8.63;;
37288;SDS011;23174;49.462;11.000;2023-02-15T00:50:18;9.85;;;9.02;;
37288;SDS011;23174;49.462;11.000;2023-02-15T00:52:19;9.95;;;9.05;;
37288;SDS011;23174;49.462;11.000;2023-02-15T00:54:20;10.05;;;9.15;;
37288;SDS011;23174;49.462;11.000;2023-02-15T00:56:20;8.93;;;8.25;;
37288;SDS011;23174;49.462;11.000;2023-02-15T00:58:21;8.95;;;8.15;;
37288;SDS011;23174;49.462;11.000;2023-02-15T01:00:22;8.90;;;8.20;;
37288;SDS011;23174;49.462;11.000;2023-02-15T01:02:22;9.75;;;8.95;;
37288;SDS011;23174;49.462;11.000;2023-02-15T01:04:23;9.98;;;9.18;;
37288;SDS011;23174;49.462;11.000;2023-02-15T01:06:24;10.68;;;9.68;;
37288;SDS011;23174;49.462;11.000;2023-02-15T01:08:25;9.43;;;8.63;;
37288;SDS011;23174;49.462;11.000;2023-02-15T01:10:26;8.50;;;7.80;;
37288;SDS011;23174;49.462;11.000;2023-02-15T01:12:27;8.80;;;7.88;;
37288;SDS011;23174;49.462;11.000;2023-02-15T01:14:27;8.07;;;7.47;;
37288;SDS011;23174;49.462;11.000;2023-02-15T01:16:28;9.23;;;8.02;;
37288;SDS011;23174;49.462;11.000;2023-02-15T01:18:29;9.20;;;8.30;;
37288;SDS011;23174;49.462;11.000;2023-02-15T01:20:29;7.53;;;6.93;;
37288;SDS011;23174;49.462;11.000;2023-02-15T01:22:33;9.20;;;8.30;;
37288;SDS011;23174;49.462;11.000;2023-02-15T01:24:34;8.25;;;7.57;;
37288;SDS011;23174;49.462;11.000;2023-02-15T01:26:35;8.15;;;7.55;;
37288;SDS011;23174;49.462;11.000;2023-02-15T01:28:35;8.68;;;7.97;;
37288;SDS011;23174;49.462;11.000;2023-02-15T01:30:37;8.07;;;7.47;;
37288;SDS011;23174;49.462;11.000;2023-02-15T01:32:37;8.38;;;7.68;;
37288;SDS011;23174;49.462;11.000;2023-02-15T01:34:38;8.77;;;8.07;;
37288;SDS011;23174;49.462;11.000;2023-02-15T01:36:38;7.50;;;6.90;;
37288;SDS011;23174;49.462;11.000;2023-02-15T01:38:39;8.40;;;7.70;;
37288;SDS011;23174;49.462;11.000;2023-02-15T01:40:40;8.43;;;7.72;;
37288;SDS011;23174;49.462;11.000;2023-02-15T01:42:40;8.32;;;7.65;;
37288;SDS011;23174;49.462;11.000;2023-02-15T01:44:48;7.88;;;7.28;;
37288;SDS011;23174;49.462;11.000;2023-02-15T01:46:56;8.20;;;7.60;;
37288;SDS011;23174;49.462;11.000;2023-02-15T01:48:59;8.45;;;7.80;;
37288;SDS011;23174;49.462;11.000;2023-02-15T01:51:14;8.50;;;7.80;;
37288;SDS011;23174;49.462;11.000;2023-02-15T01:53:27;8.18;;;7.57;;
37288;SDS011;23174;49.462;11.000;2023-02-15T01:55:40;8.50;;;7.78;;
37288;SDS011;23174;49.462;11.000;2023-02-15T01:57:47;8.70;;;8.00;;
37288;SDS011;23174;49.462;11.000;2023-02-15T01:59:50;8.38;;;7.60;;
37288;SDS011;23174;49.462;11.000;2023-02-15T02:01:56;9.23;;;8.45;;
37288;SDS011;23174;49.462;11.000;2023-02-15T02:04:13;9.63;;;8.82;;
37288;SDS011;23174;49.462;11.000;2023-02-15T02:06:18;9.40;;;8.60;;
37288;SDS011;23174;49.462;11.000;2023-02-15T02:08:20;8.30;;;7.70;;
37288;SDS011;23174;49.462;11.000;2023-02-15T02:10:22;9.18;;;8.38;;
37288;SDS011;23174;49.462;11.000;2023-02-15T02:12:23;9.80;;;8.98;;
37288;SDS011;23174;49.462;11.000;2023-02-15T02:14:24;9.48;;;8.60;;
37288;SDS011;23174;49.462;11.000;2023-02-15T02:16:40;9.65;;;8.85;;
37288;SDS011;23174;49.462;11.000;2023-02-15T02:18:49;10.05;;;9.10;;
37288;SDS011;23174;49.462;11.000;2023-02-15T02:23:33;10.20;;;9.20;;
37288;SDS011;23174;49.462;11.000;2023-02-15T02:35:23;9.68;;;8.77;;
37288;SDS011;23174;49.462;11.000;2023-02-15T02:39:55;10.48;;;9.57;;
37288;SDS011;23174;49.462;11.000;2023-02-15T02:42:12;9.38;;;8.57;;
37288;SDS011;23174;49.462;11.000;2023-02-15T02:44:39;9.32;;;8.52;;
37288;SDS011;23174;49.462;11.000;2023-02-15T02:47:05;8.85;;;7.95;;
37288;SDS011;23174;49.462;11.000;2023-02-15T02:49:09;8.55;;;7.85;;
37288;SDS011;23174;49.462;11.000;2023-02-15T02:51:09;8.95;;;8.15;;
37288;SDS011;23174;49.462;11.000;2023-02-15T02:53:10;8.65;;;7.95;;
37288;SDS011;23174;49.462;11.000;2023-02-15T02:57:29;8.32;;;7.63;;
37288;SDS011;23174;49.462;11.000;2023-02-15T02:59:35;8.82;;;7.95;;
37288;SDS011;23174;49.462;11.000;2023-02-15T03:01:46;9.13;;;8.32;;
37288;SDS011;23174;49.462;11.000;2023-02-15T03:03:56;9.00;;;8.10;;
37288;SDS011;23174;49.462;11.000;2023-02-15T03:06:06;8.63;;;7.93;;
37288;SDS011;23174;49.462;11.000;2023-02-15T03:08:13;8.63;;;7.82;;
37288;SDS011;23174;49.462;11.000;2023-02-15T03:10:22;8.52;;;7.72;;
37288;SDS011;23174;49.462;11.000;2023-02-15T03:12:28;8.13;;;7.43;;
37288;SDS011;23174;49.462;11.000;2023-02-15T03:14:32;8.50;;;7.70;;
37288;SDS011;23174;49.462;11.000;2023-02-15T03:16:33;7.90;;;7.25;;
37288;SDS011;23174;49.462;11.000;2023-02-15T03:18:35;8.23;;;7.55;;
37288;SDS011;23174;49.462;11.000;2023-02-15T03:20:52;8.95;;;8.15;;
37288;SDS011;23174;49.462;11.000;2023-02-15T03:22:55;7.78;;;7.18;;
37288;SDS011;23174;49.462;11.000;2023-02-15T03:25:10;7.90;;;7.20;;
37288;SDS011;23174;49.462;11.000;2023-02-15T03:27:23;7.72;;;7.07;;
37288;SDS011;23174;49.462;11.000;2023-02-15T03:29:33;7.93;;;7.22;;
37288;SDS011;23174;49.462;11.000;2023-02-15T03:31:37;7.38;;;6.78;;
37288;SDS011;23174;49.462;11.000;2023-02-15T03:33:42;7.82;;;7.22;;
37288;SDS011;23174;49.462;11.000;2023-02-15T03:36:01;8.38;;;7.68;;
37288;SDS011;23174;49.462;11.000;2023-02-15T03:38:25;6.75;;;6.25;;
37288;SDS011;23174;49.462;11.000;2023-02-15T03:40:34;6.60;;;6.07;;
37288;SDS011;23174;49.462;11.000;2023-02-15T03:43:01;6.35;;;5.78;;
37288;SDS011;23174;49.462;11.000;2023-02-15T03:45:15;7.03;;;6.43;;
37288;SDS011;23174;49.462;11.000;2023-02-15T03:47:23;6.78;;;6.28;;
37288;SDS011;23174;49.462;11.000;2023-02-15T03:49:30;6.72;;;6.22;;
37288;SDS011;23174;49.462;11.000;2023-02-15T03:51:37;6.03;;;5.53;;
37288;SDS011;23174;49.462;11.000;2023-02-15T03:53:41;6.45;;;5.93;;
37288;SDS011;23174;49.462;11.000;2023-02-15T03:55:46;6.85;;;6.25;;
37288;SDS011;23174;49.462;11.000;2023-02-15T03:57:47;6.97;;;6.38;;
37288;SDS011;23174;49.462;11.000;2023-02-15T04:00:14;6.60;;;6.10;;
37288;SDS011;23174;49.462;11.000;2023-02-15T04:05:32;7.03;;;6.43;;
37288;SDS011;23174;49.462;11.000;2023-02-15T04:07:33;6.55;;;6.05;;
37288;SDS011;23174;49.462;11.000;2023-02-15T04:09:33;6.32;;;5.88;;
37288;SDS011;23174;49.462;11.000;2023-02-15T04:11:53;6.13;;;5.72;;
37288;SDS011;23174;49.462;11.000;2023-02-15T04:13:53;7.38;;;6.78;;
37288;SDS011;23174;49.462;11.000;2023-02-15T04:15:56;6.60;;;6.10;;
37288;SDS011;23174;49.462;11.000;2023-02-15T04:18:03;6.82;;;6.28;;
37288;SDS011;23174;49.462;11.000;2023-02-15T04:20:04;6.97;;;6.40;;
37288;SDS011;23174;49.462;11.000;2023-02-15T04:22:23;6.75;;;6.25;;
37288;SDS011;23174;49.462;11.000;2023-02-15T04:24:42;7.18;;;6.68;;
37288;SDS011;23174;49.462;11.000;2023-02-15T04:27:02;6.82;;;6.18;;
37288;SDS011;23174;49.462;11.000;2023-02-15T04:29:04;6.28;;;5.75;;
37288;SDS011;23174;49.462;11.000;2023-02-15T04:31:04;7.40;;;6.70;;
37288;SDS011;23174;49.462;11.000;2023-02-15T04:33:05;7.68;;;6.15;;
37288;SDS011;23174;49.462;11.000;2023-02-15T04:35:06;6.78;;;6.15;;
37288;SDS011;23174;49.462;11.000;2023-02-15T04:37:07;6.78;;;6.28;;
37288;SDS011;23174;49.462;11.000;2023-02-15T04:39:08;6.13;;;5.55;;
37288;SDS011;23174;49.462;11.000;2023-02-15T04:41:09;5.90;;;5.50;;
37288;SDS011;23174;49.462;11.000;2023-02-15T04:43:11;6.47;;;5.97;;
37288;SDS011;23174;49.462;11.000;2023-02-15T04:45:11;6.78;;;6.22;;
37288;SDS011;23174;49.462;11.000;2023-02-15T04:47:12;8.57;;;6.97;;
37288;SDS011;23174;49.462;11.000;2023-02-15T04:49:12;7.57;;;6.90;;
37288;SDS011;23174;49.462;11.000;2023-02-15T04:51:13;7.55;;;6.95;;
37288;SDS011;23174;49.462;11.000;2023-02-15T04:53:14;7.03;;;6.43;;
37288;SDS011;23174;49.462;11.000;2023-02-15T04:55:16;7.50;;;6.93;;
37288;SDS011;23174;49.462;11.000;2023-02-15T04:57:17;7.32;;;6.72;;
37288;SDS011;23174;49.462;11.000;2023-02-15T04:59:17;6.68;;;6.15;;
37288;SDS011;23174;49.462;11.000;2023-02-15T05:01:18;7.63;;;7.03;;
37288;SDS011;23174;49.462;11.000;2023-02-15T05:03:18;7.40;;;6.80;;
37288;SDS011;23174;49.462;11.000;2023-02-15T05:05:19;6.60;;;6.10;;
37288;SDS011;23174;49.462;11.000;2023-02-15T05:07:19;7.57;;;6.97;;
37288;SDS011;23174;49.462;11.000;2023-02-15T05:09:20;7.28;;;6.68;;
37288;SDS011;23174;49.462;11.000;2023-02-15T05:11:21;7.75;;;7.05;;
37288;SDS011;23174;49.462;11.000;2023-02-15T05:13:21;6.95;;;6.43;;
37288;SDS011;23174;49.462;11.000;2023-02-15T05:15:22;7.65;;;7.05;;
37288;SDS011;23174;49.462;11.000;2023-02-15T05:17:23;7.15;;;6.55;;
37288;SDS011;23174;49.462;11.000;2023-02-15T05:19:23;7.60;;;6.97;;
37288;SDS011;23174;49.462;11.000;2023-02-15T05:21:24;8.40;;;7.70;;
37288;SDS011;23174;49.462;11.000;2023-02-15T05:23:25;7.65;;;6.95;;
37288;SDS011;23174;49.462;11.000;2023-02-15T05:25:25;9.63;;;7.30;;
37288;SDS011;23174;49.462;11.000;2023-02-15T05:27:44;8.48;;;7.70;;
37288;SDS011;23174;49.462;11.000;2023-02-15T05:30:04;8.13;;;7.32;;
37288;SDS011;23174;49.462;11.000;2023-02-15T05:32:05;8.68;;;7.97;;
37288;SDS011;23174;49.462;11.000;2023-02-15T05:34:06;8.90;;;8.10;;
37288;SDS011;23174;49.462;11.000;2023-02-15T05:36:07;8.07;;;7.28;;
37288;SDS011;23174;49.462;11.000;2023-02-15T05:38:08;8.52;;;7.72;;
37288;SDS011;23174;49.462;11.000;2023-02-15T05:40:09;8.00;;;7.40;;
37288;SDS011;23174;49.462;11.000;2023-02-15T05:42:10;8.48;;;7.80;;
37288;SDS011;23174;49.462;11.000;2023-02-15T05:44:13;7.75;;;7.05;;
37288;SDS011;23174;49.462;11.000;2023-02-15T05:46:14;8.57;;;7.78;;
37288;SDS011;23174;49.462;11.000;2023-02-15T05:48:15;7.95;;;7.32;;
37288;SDS011;23174;49.462;11.000;2023-02-15T05:50:16;8.73;;;7.93;;
37288;SDS011;23174;49.462;11.000;2023-02-15T05:52:17;9.13;;;8.32;;
37288;SDS011;23174;49.462;11.000;2023-02-15T05:54:18;9.30;;;8.52;;
37288;SDS011;23174;49.462;11.000;2023-02-15T05:56:18;9.52;;;8.70;;
37288;SDS011;23174;49.462;11.000;2023-02-15T05:58:19;9.48;;;8.60;;
37288;SDS011;23174;49.462;11.000;2023-02-15T06:00:20;8.77;;;7.97;;
37288;SDS011;23174;49.462;11.000;2023-02-15T06:02:20;8.77;;;8.07;;
37288;SDS011;23174;49.462;11.000;2023-02-15T06:04:21;8.57;;;7.88;;
37288;SDS011;23174;49.462;11.000;2023-02-15T06:06:21;8.57;;;7.88;;
37288;SDS011;23174;49.462;11.000;2023-02-15T06:08:22;9.00;;;8.20;;
37288;SDS011;23174;49.462;11.000;2023-02-15T06:10:23;8.45;;;7.75;;
37288;SDS011;23174;49.462;11.000;2023-02-15T06:12:23;8.68;;;7.78;;
37288;SDS011;23174;49.462;11.000;2023-02-15T06:14:24;8.88;;;7.97;;
37288;SDS011;23174;49.462;11.000;2023-02-15T06:16:25;9.52;;;8.73;;
37288;SDS011;23174;49.462;11.000;2023-02-15T06:18:25;9.13;;;8.32;;
37288;SDS011;23174;49.462;11.000;2023-02-15T06:20:26;8.95;;;8.20;;
37288;SDS011;23174;49.462;11.000;2023-02-15T06:22:26;8.55;;;7.75;;
37288;SDS011;23174;49.462;11.000;2023-02-15T06:24:27;9.13;;;8.23;;
37288;SDS011;23174;49.462;11.000;2023-02-15T06:26:28;9.10;;;8.32;;
37288;SDS011;23174;49.462;11.000;2023-02-15T06:28:28;7.72;;;7.03;;
37288;SDS011;23174;49.462;11.000;2023-02-15T06:30:29;8.85;;;7.95;;
37288;SDS011;23174;49.462;11.000;2023-02-15T06:32:29;8.63;;;7.72;;
37288;SDS011;23174;49.462;11.000;2023-02-15T06:34:30;8.98;;;8.10;;
37288;SDS011;23174;49.462;11.000;2023-02-15T06:36:30;7.78;;;7.07;;
37288;SDS011;23174;49.462;11.000;2023-02-15T06:38:31;8.70;;;7.97;;
37288;SDS011;23174;49.462;11.000;2023-02-15T06:40:32;9.48;;;8.57;;
37288;SDS011;23174;49.462;11.000;2023-02-15T06:42:33;9.63;;;8.73;;
37288;SDS011;23174;49.462;11.000;2023-02-15T06:44:33;9.30;;;8.50;;
37288;SDS011;23174;49.462;11.000;2023-02-15T06:46:34;9.45;;;8.57;;
37288;SDS011;23174;49.462;11.000;2023-02-15T06:48:34;8.65;;;7.95;;
37288;SDS011;23174;49.462;11.000;2023-02-15T06:50:35;9.40;;;8.60;;
37288;SDS011;23174;49.462;11.000;2023-02-15T06:52:36;11.77;;;8.85;;
37288;SDS011;23174;49.462;11.000;2023-02-15T06:54:36;9.02;;;8.10;;
37288;SDS011;23174;49.462;11.000;2023-02-15T06:56:37;9.10;;;8.30;;
37288;SDS011;23174;49.462;11.000;2023-02-15T06:58:39;9.25;;;8.43;;
37288;SDS011;23174;49.462;11.000;2023-02-15T07:00:40;9.52;;;8.63;;
37288;SDS011;23174;49.462;11.000;2023-02-15T07:02:41;10.05;;;9.05;;
37288;SDS011;23174;49.462;11.000;2023-02-15T07:04:41;9.25;;;8.32;;
37288;SDS011;23174;49.462;11.000;2023-02-15T07:06:42;9.90;;;8.93;;
37288;SDS011;23174;49.462;11.000;2023-02-15T07:08:43;10.55;;;9.50;;
37288;SDS011;23174;49.462;11.000;2023-02-15T07:10:43;10.25;;;9.00;;
37288;SDS011;23174;49.462;11.000;2023-02-15T07:12:44;9.43;;;7.32;;
37288;SDS011;23174;49.462;11.000;2023-02-15T07:14:45;9.00;;;8.10;;
37288;SDS011;23174;49.462;11.000;2023-02-15T07:16:46;8.27;;;7.18;;
37288;SDS011;23174;49.462;11.000;2023-02-15T07:18:46;7.65;;;6.95;;
37288;SDS011;23174;49.462;11.000;2023-02-15T07:20:47;10.73;;;8.82;;
37288;SDS011;23174;49.462;11.000;2023-02-15T07:22:47;10.02;;;8.48;;
37288;SDS011;23174;49.462;11.000;2023-02-15T07:24:49;9.73;;;8.40;;
37288;SDS011;23174;49.462;11.000;2023-02-15T07:26:50;8.98;;;8.07;;
37288;SDS011;23174;49.462;11.000;2023-02-15T07:28:50;11.77;;;8.35;;
37288;SDS011;23174;49.462;11.000;2023-02-15T07:30:51;8.68;;;7.70;;
37288;SDS011;23174;49.462;11.000;2023-02-15T07:32:58;8.52;;;7.53;;
37288;SDS011;23174;49.462;11.000;2023-02-15T07:35:18;7.03;;;6.35;;
37288;SDS011;23174;49.462;11.000;2023-02-15T07:37:18;10.10;;;8.60;;
37288;SDS011;23174;49.462;11.000;2023-02-15T07:39:19;9.63;;;8.63;;
37288;SDS011;23174;49.462;11.000;2023-02-15T07:41:20;7.65;;;6.85;;
37288;SDS011;23174;49.462;11.000;2023-02-15T07:43:20;9.25;;;8.35;;
37288;SDS011;23174;49.462;11.000;2023-02-15T07:45:21;11.20;;;10.25;;
37288;SDS011;23174;49.462;11.000;2023-02-15T07:47:22;9.77;;;8.85;;
37288;SDS011;23174;49.462;11.000;2023-02-15T07:49:22;9.95;;;8.95;;
37288;SDS011;23174;49.462;11.000;2023-02-15T07:51:23;10.70;;;9.70;;
37288;SDS011;23174;49.462;11.000;2023-02-15T07:53:23;9.80;;;8.80;;
37288;SDS011;23174;49.462;11.000;2023-02-15T07:55:24;10.95;;;9.95;;
37288;SDS011;23174;49.462;11.000;2023-02-15T07:57:24;11.32;;;10.25;;
37288;SDS011;23174;49.462;11.000;2023-02-15T07:59:25;10.00;;;9.10;;
37288;SDS011;23174;49.462;11.000;2023-02-15T08:01:27;10.73;;;9.73;;
37288;SDS011;23174;49.462;11.000;2023-02-15T08:03:30;9.82;;;8.95;;
37288;SDS011;23174;49.462;11.000;2023-02-15T08:05:30;10.65;;;9.65;;
37288;SDS011;23174;49.462;11.000;2023-02-15T08:07:31;10.90;;;9.90;;
37288;SDS011;23174;49.462;11.000;2023-02-15T08:09:31;10.60;;;9.60;;
37288;SDS011;23174;49.462;11.000;2023-02-15T08:11:33;9.48;;;8.68;;
37288;SDS011;23174;49.462;11.000;2023-02-15T08:13:43;11.98;;;9.68;;
37288;SDS011;23174;49.462;11.000;2023-02-15T08:15:53;10.30;;;9.32;;
37288;SDS011;23174;49.462;11.000;2023-02-15T08:17:54;10.40;;;9.55;;
37288;SDS011;23174;49.462;11.000;2023-02-15T08:19:54;9.20;;;8.35;;
37288;SDS011;23174;49.462;11.000;2023-02-15T08:23:57;9.98;;;9.07;;
37288;SDS011;23174;49.462;11.000;2023-02-15T08:25:59;9.15;;;8.35;;
37288;SDS011;23174;49.462;11.000;2023-02-15T08:28:00;10.30;;;9.40;;
37288;SDS011;23174;49.462;11.000;2023-02-15T08:30:00;10.07;;;9.18;;
37288;SDS011;23174;49.462;11.000;2023-02-15T08:32:05;9.45;;;8.55;;
37288;SDS011;23174;49.462;11.000;2023-02-15T08:34:10;10.05;;;9.18;;
37288;SDS011;23174;49.462;11.000;2023-02-15T08:36:14;10.43;;;9.43;;
37288;SDS011;23174;49.462;11.000;2023-02-15T08:38:17;9.10;;;8.32;;
37288;SDS011;23174;49.462;11.000;2023-02-15T08:40:17;11.45;;;10.38;;
37288;SDS011;23174;49.462;11.000;2023-02-15T08:42:18;9.98;;;9.05;;
37288;SDS011;23174;49.462;11.000;2023-02-15T08:44:20;10.40;;;9.40;;
37288;SDS011;23174;49.462;11.000;2023-02-15T08:46:21;9.23;;;8.38;;
37288;SDS011;23174;49.462;11.000;2023-02-15T08:48:23;10.73;;;9.63;;
37288;SDS011;23174;49.462;11.000;2023-02-15T08:50:24;10.13;;;9.32;;
37288;SDS011;23174;49.462;11.000;2023-02-15T08:52:24;11.32;;;10.07;;
37288;SDS011;23174;49.462;11.000;2023-02-15T08:54:25;10.98;;;9.95;;
37288;SDS011;23174;49.462;11.000;2023-02-15T08:56:26;11.82;;;10.70;;
37288;SDS011;23174;49.462;11.000;2023-02-15T08:58:29;11.82;;;10.73;;
37288;SDS011;23174;49.462;11.000;2023-02-15T09:00:30;11.27;;;10.18;;
37288;SDS011;23174;49.462;11.000;2023-02-15T09:02:31;11.68;;;10.57;;
37288;SDS011;23174;49.462;11.000;2023-02-15T09:04:31;11.02;;;10.02;;
37288;SDS011;23174;49.462;11.000;2023-02-15T09:06:32;11.35;;;10.35;;
37288;SDS011;23174;49.462;11.000;2023-02-15T09:08:33;11.75;;;10.65;;
37288;SDS011;23174;49.462;11.000;2023-02-15T09:10:33;12.50;;;11.40;;
37288;SDS011;23174;49.462;11.000;2023-02-15T09:12:34;13.10;;;11.80;;
37288;SDS011;23174;49.462;11.000;2023-02-15T09:14:34;11.85;;;10.75;;
37288;SDS011;23174;49.462;11.000;2023-02-15T09:16:36;12.27;;;11.18;;
37288;SDS011;23174;49.462;11.000;2023-02-15T09:18:38;11.73;;;10.63;;
37288;SDS011;23174;49.462;11.000;2023-02-15T09:20:39;12.45;;;11.25;;
37288;SDS011;23174;49.462;11.000;2023-02-15T09:22:39;11.40;;;10.27;;
37288;SDS011;23174;49.462;11.000;2023-02-15T09:24:40;11.60;;;10.50;;
37288;SDS011;23174;49.462;11.000;2023-02-15T09:26:42;11.45;;;10.02;;
37288;SDS011;23174;49.462;11.000;2023-02-15T09:28:45;11.80;;;10.80;;
37288;SDS011;23174;49.462;11.000;2023-02-15T09:30:46;11.90;;;10.82;;
37288;SDS011;23174;49.462;11.000;2023-02-15T09:32:47;12.85;;;11.55;;
37288;SDS011;23174;49.462;11.000;2023-02-15T09:34:48;13.27;;;10.60;;
37288;SDS011;23174;49.462;11.000;2023-02-15T09:36:48;13.40;;;12.02;;
37288;SDS011;23174;49.462;11.000;2023-02-15T09:38:56;11.88;;;10.80;;
37288;SDS011;23174;49.462;11.000;2023-02-15T09:41:24;11.55;;;10.45;;
37288;SDS011;23174;49.462;11.000;2023-02-15T09:46:15;11.98;;;10.85;;
37288;SDS011;23174;49.462;11.000;2023-02-15T09:50:53;11.05;;;9.95;;
37288;SDS011;23174;49.462;11.000;2023-02-15T10:00:10;14.68;;;11.27;;
37288;SDS011;23174;49.462;11.000;2023-02-15T10:12:17;11.38;;;10.27;;
37288;SDS011;23174;49.462;11.000;2023-02-15T10:14:50;11.48;;;10.38;;
37288;SDS011;23174;49.462;11.000;2023-02-15T10:17:33;12.40;;;11.18;;
37288;SDS011;23174;49.462;11.000;2023-02-15T10:22:11;11.65;;;10.45;;
37288;SDS011;23174;49.462;11.000;2023-02-15T10:24:28;11.98;;;10.93;;
37288;SDS011;23174;49.462;11.000;2023-02-15T10:26:33;11.85;;;10.63;;
37288;SDS011;23174;49.462;11.000;2023-02-15T10:29:03;10.80;;;9.75;;
37288;SDS011;23174;49.462;11.000;2023-02-15T10:33:25;10.75;;;9.85;;
37288;SDS011;23174;49.462;11.000;2023-02-15T10:35:46;11.38;;;10.27;;
37288;SDS011;23174;49.462;11.000;2023-02-15T10:38:04;11.63;;;10.40;;
37288;SDS011;23174;49.462;11.000;2023-02-15T10:46:55;11.55;;;10.48;;
37288;SDS011;23174;49.462;11.000;2023-02-15T10:49:25;11.00;;;9.90;;
37288;SDS011;23174;49.462;11.000;2023-02-15T10:53:52;11.25;;;10.25;;
37288;SDS011;23174;49.462;11.000;2023-02-15T11:00:53;10.27;;;9.32;;
37288;SDS011;23174;49.462;11.000;2023-02-15T11:07:24;9.57;;;8.77;;
37288;SDS011;23174;49.462;11.000;2023-02-15T11:09:40;10.02;;;9.10;;
37288;SDS011;23174;49.462;11.000;2023-02-15T11:11:49;10.85;;;9.75;;
37288;SDS011;23174;49.462;11.000;2023-02-15T11:13:54;10.52;;;9.52;;
37288;SDS011;23174;49.462;11.000;2023-02-15T11:16:06;11.35;;;10.27;;
37288;SDS011;23174;49.462;11.000;2023-02-15T11:20:33;11.30;;;10.25;;
37288;SDS011;23174;49.462;11.000;2023-02-15T11:22:37;11.30;;;10.20;;
37288;SDS011;23174;49.462;11.000;2023-02-15T11:24:41;10.90;;;9.90;;
37288;SDS011;23174;49.462;11.000;2023-02-15T11:26:44;11.13;;;10.02;;
37288;SDS011;23174;49.462;11.000;2023-02-15T11:31:37;10.00;;;9.10;;
37288;SDS011;23174;49.462;11.000;2023-02-15T11:33:55;11.00;;;9.90;;
37288;SDS011;23174;49.462;11.000;2023-02-15T11:36:05;10.48;;;9.48;;
37288;SDS011;23174;49.462;11.000;2023-02-15T11:38:18;12.20;;;10.77;;
37288;SDS011;23174;49.462;11.000;2023-02-15T11:40:21;13.45;;;12.02;;
37288;SDS011;23174;49.462;11.000;2023-02-15T11:42:25;11.95;;;10.85;;
37288;SDS011;23174;49.462;11.000;2023-02-15T11:44:31;12.20;;;10.82;;
37288;SDS011;23174;49.462;11.000;2023-02-15T11:46:35;11.50;;;10.50;;
37288;SDS011;23174;49.462;11.000;2023-02-15T11:48:40;12.20;;;10.98;;
37288;SDS011;23174;49.462;11.000;2023-02-15T11:50:42;11.43;;;10.32;;
37288;SDS011;23174;49.462;11.000;2023-02-15T11:52:44;12.40;;;11.15;;
37288;SDS011;23174;49.462;11.000;2023-02-15T11:54:45;12.05;;;9.82;;
37288;SDS011;23174;49.462;11.000;2023-02-15T11:56:50;12.18;;;10.80;;
37288;SDS011;23174;49.462;11.000;2023-02-15T12:03:41;12.70;;;10.70;;
37288;SDS011;23174;49.462;11.000;2023-02-15T12:05:53;13.00;;;11.70;;
37288;SDS011;23174;49.462;11.000;2023-02-15T12:08:09;12.45;;;11.27;;
37288;SDS011;23174;49.462;11.000;2023-02-15T12:10:25;12.93;;;11.10;;
37288;SDS011;23174;49.462;11.000;2023-02-15T12:12:30;11.18;;;10.07;;
37288;SDS011;23174;49.462;11.000;2023-02-15T12:14:46;12.63;;;11.40;;
37288;SDS011;23174;49.462;11.000;2023-02-15T12:16:53;12.43;;;11.15;;
37288;SDS011;23174;49.462;11.000;2023-02-15T12:18:56;13.02;;;11.18;;
37288;SDS011;23174;49.462;11.000;2023-02-15T12:21:00;13.85;;;12.55;;
37288;SDS011;23174;49.462;11.000;2023-02-15T12:23:06;14.63;;;11.77;;
37288;SDS011;23174;49.462;11.000;2023-02-15T12:25:27;13.32;;;11.75;;
37288;SDS011;23174;49.462;11.000;2023-02-15T12:27:53;14.18;;;11.23;;
37288;SDS011;23174;49.462;11.000;2023-02-15T12:32:09;15.05;;;11.50;;
37288;SDS011;23174;49.462;11.000;2023-02-15T12:36:26;12.98;;;11.35;;
37288;SDS011;23174;49.462;11.000;2023-02-15T12:38:30;13.30;;;11.73;;
37288;SDS011;23174;49.462;11.000;2023-02-15T12:40:31;12.55;;;11.30;;
37288;SDS011;23174;49.462;11.000;2023-02-15T12:42:40;14.02;;;12.63;;
37288;SDS011;23174;49.462;11.000;2023-02-15T12:45:43;12.82;;;11.35;;
37288;SDS011;23174;49.462;11.000;2023-02-15T12:47:24;15.30;;;13.05;;
37288;SDS011;23174;49.462;11.000;2023-02-15T12:49:30;13.80;;;12.38;;
37288;SDS011;23174;49.462;11.000;2023-02-15T12:51:41;14.13;;;12.38;;
37288;SDS011;23174;49.462;11.000;2023-02-15T12:53:44;13.50;;;12.07;;
37288;SDS011;23174;49.462;11.000;2023-02-15T12:55:55;20.33;;;12.60;;
37288;SDS011;23174;49.462;11.000;2023-02-15T13:02:25;15.55;;;13.93;;
37288;SDS011;23174;49.462;11.000;2023-02-15T13:04:49;16.35;;;13.13;;
37288;SDS011;23174;49.462;11.000;2023-02-15T13:06:52;14.50;;;12.65;;
37288;SDS011;23174;49.462;11.000;2023-02-15T13:08:55;14.90;;;13.25;;
37288;SDS011;23174;49.462;11.000;2023-02-15T13:11:00;19.27;;;14.90;;
37288;SDS011;23174;49.462;11.000;2023-02-15T13:13:08;17.98;;;14.02;;
37288;SDS011;23174;49.462;11.000;2023-02-15T13:15:28;15.98;;;14.30;;
37288;SDS011;23174;49.462;11.000;2023-02-15T13:17:30;16.10;;;13.88;;
37288;SDS011;23174;49.462;11.000;2023-02-15T13:19:52;15.88;;;14.23;;
37288;SDS011;23174;49.462;11.000;2023-02-15T13:21:56;15.93;;;14.02;;
37288;SDS011;23174;49.462;11.000;2023-02-15T13:24:10;16.13;;;14.23;;
37288;SDS011;23174;49.462;11.000;2023-02-15T13:26:22;18.90;;;14.18;;
37288;SDS011;23174;49.462;11.000;2023-02-15T13:28:31;17.90;;;15.38;;
37288;SDS011;23174;49.462;11.000;2023-02-15T13:30:48;17.55;;;14.30;;
37288;SDS011;23174;49.462;11.000;2023-02-15T13:32:51;17.55;;;15.43;;
37288;SDS011;23174;49.462;11.000;2023-02-15T13:34:57;17.70;;;13.88;;
37288;SDS011;23174;49.462;11.000;2023-02-15T13:41:31;17.65;;;14.00;;
37288;SDS011;23174;49.462;11.000;2023-02-15T13:43:58;16.00;;;14.40;;
37288;SDS011;23174;49.462;11.000;2023-02-15T13:46:21;18.95;;;14.68;;
37288;SDS011;23174;49.462;11.000;2023-02-15T13:48:51;16.77;;;14.45;;